Time;durP1;ratioP1;P1;durP2;ratioP2;P2;SDS_P1;SDS_P2;PMS_P1;PMS_P2;Temp;Humidity;BMP_temperature;BMP_pressure;BME280_temperature;BME280_humidity;BME280_pressure;Samples;Min_cycle;Max_cycle;Signal;HPM_P1;HPM_P2
2021/10/04 00:01:31;;;;;;;;;;;;;;;;;;5081835;28;19909;-89
2021/10/04 00:03:56;;;;;;;;;;;;;;;;;;5082377;28;19908;-88
2021/10/04 00:06:21;;;;;;;;;;;;;;;;;;5082895;28;20018;-88
2021/10/04 00:08:46;;;;;;;;;;;;;;;;;;5082692;28;19909;-89
2021/10/04 00:11:11;;;;;;;;;;;;;;;;;;5082027;28;19948;-88
2021/10/04 00:13:36;;;;;;;;;;;;;;;;;;5081192;28;19909;-88
2021/10/04 00:16:01;;;;;;;;;;;;;;;;;;5082225;28;19908;-88
2021/10/04 00:18:26;;;;;;;;;;;;;;;;;;5082989;28;19923;-87
2021/10/04 00:20:52;;;;;;;;;;;;;;;;;;5082993;28;19972;-88
2021/10/04 00:23:17;;;;;;;;;;;;;;;;;;5084263;28;19939;-89
2021/10/04 00:25:42;;;;;;;;;;;;;;;;;;5087135;28;19893;-89
2021/10/04 00:28:07;;;;;;;;;;;;;;;;;;5097124;28;19912;-89
2021/10/04 00:30:33;;;;;;;;;;;;;;;;;;5097974;28;19972;-88
2021/10/04 00:32:58;;;;;;;;;;;;;;;;;;5090936;28;19912;-87
2021/10/04 00:35:23;;;;;;;;;;;;;;;;;;5089276;28;20425;-87
2021/10/04 00:37:51;;;;;;;;;;;;;;;;;;5084294;28;19924;-87
2021/10/04 00:40:16;;;;;;;;;;;;;;;;;;5083064;28;19904;-89
2021/10/04 00:42:41;;;;;;;;;;;;;;;;;;5083161;28;19932;-87
2021/10/04 00:45:06;;;;;;;;;;;;;;;;;;5082337;28;19912;-88
2021/10/04 00:47:31;;;;;;;;;;;;;;;;;;5080960;28;19908;-87
2021/10/04 00:49:57;;;;;;;;;;;;;;;;;;5082989;28;19911;-88
2021/10/04 00:52:22;;;;;;;;;;;;;;;;;;5081669;28;19909;-89
2021/10/04 00:54:47;;;;;;;;;;;;;;;;;;5082792;28;19958;-87
2021/10/04 00:57:12;;;;;;;;;;;;;;;;;;5081202;28;19917;-88
2021/10/04 00:59:37;;;;;;;;;;;;;;;;;;5080700;28;19919;-88
2021/10/04 01:02:02;;;;;;;;;;;;;;;;;;5081117;28;19908;-87
2021/10/04 01:04:27;;;;;;;;;;;;;;;;;;5080413;28;19912;-89
2021/10/04 01:06:52;;;;;;;;;;;;;;;;;;5081307;28;19923;-88
2021/10/04 01:09:18;;;;;;;;;;;;;;;;;;5081719;28;19912;-89
2021/10/04 01:11:43;;;;;;;;;;;;;;;;;;5081209;28;19909;-87
2021/10/04 01:14:08;;;;;;;;;;;;;;;;;;5080481;28;19912;-86
2021/10/04 01:16:33;;;;;;;;;;;;;;;;;;5081503;28;19909;-86
2021/10/04 01:18:58;;;;;;;;;;;;;;;;;;5081705;28;19923;-87
2021/10/04 01:21:23;;;;;;;;;;;;;;;;;;5082979;28;19909;-88
2021/10/04 01:23:48;;;;;;;;;;;;;;;;;;5083256;28;19976;-89
2021/10/04 01:26:13;;;;;;;;;;;;;;;;;;5085388;28;19915;-88
2021/10/04 01:28:39;;;;;;;;;;;;;;;;;;5085901;28;19916;-88
2021/10/04 01:31:04;;;;;;;;;;;;;;;;;;5084795;28;19915;-88
2021/10/04 01:33:29;;;;;;;;;;;;;;;;;;5085023;28;19909;-90
2021/10/04 01:35:54;;;;;;;;;;;;;;;;;;5085093;28;20014;-87
2021/10/04 01:38:19;;;;;;;;;;;;;;;;;;5084755;28;19921;-87
2021/10/04 01:40:46;;;;;;;;;;;;;;;;;;5085326;28;19975;-88
2021/10/04 01:43:11;;;;;;;;;;;;;;;;;;5084896;28;19908;-89
2021/10/04 01:45:36;;;;;;;;;;;;;;;;;;5084157;28;19932;-88
2021/10/04 01:48:01;;;;;;;;;;;;;;;;;;5084234;28;19916;-89
2021/10/04 01:50:27;;;;;;;;;;;;;;;;;;5084798;28;20274;-88
2021/10/04 01:52:52;;;;;;;;;;;;;;;;;;5084279;28;19909;-88
2021/10/04 01:55:17;;;;;;;;;;;;;;;;;;5084496;28;19908;-89
2021/10/04 01:57:42;;;;;;;;;;;;;;;;;;5084565;28;19916;-89
2021/10/04 02:00:07;;;;;;;;;;;;;;;;;;5085028;28;19940;-87
2021/10/04 02:02:32;;;;;;;;;;;;;;;;;;5085684;28;19940;-87
2021/10/04 02:04:58;;;;;;;;;;;;;;;;;;5085199;28;20053;-89
2021/10/04 02:07:23;;;;;;;;;;;;;;;;;;5084120;28;19916;-89
2021/10/04 02:09:48;;;;;;;;;;;;;;;;;;5084566;28;20373;-88
2021/10/04 02:12:13;;;;;;;;;;;;;;;;;;5084248;28;19974;-87
2021/10/04 02:14:39;;;;;;;;;;;;;;;;;;5083571;28;20270;-87
2021/10/04 02:17:04;;;;;;;;;;;;;;;;;;5084196;28;20366;-87
2021/10/04 02:19:29;;;;;;;;;;;;;;;;;;5084220;28;19915;-87
2021/10/04 02:21:55;;;;;;;;;;;;;;;;;;5084094;28;19908;-87
2021/10/04 02:24:20;;;;;;;;;;;;;;;;;;5083428;28;19915;-86
2021/10/04 02:26:45;;;;;;;;;;;;;;;;;;5085458;28;19908;-88
2021/10/04 02:29:10;;;;;;;;;;;;;;;;;;5083866;28;19909;-88
2021/10/04 02:31:35;;;;;;;;;;;;;;;;;;5084157;28;20365;-90
2021/10/04 02:34:00;;;;;;;;;;;;;;;;;;5083562;28;19908;-87
2021/10/04 02:36:25;;;;;;;;;;;;;;;;;;5082850;28;19984;-90
2021/10/04 02:38:51;;;;;;;;;;;;;;;;;;5084908;28;19966;-86
2021/10/04 02:41:16;;;;;;;;;;;;;;;;;;5084548;28;20259;-87
2021/10/04 02:43:41;;;;;;;;;;;;;;;;;;5084040;28;19909;-88
2021/10/04 02:46:06;;;;;;;;;;;;;;;;;;5083392;28;19909;-87
2021/10/04 02:48:31;;;;;;;;;;;;;;;;;;5082495;28;19948;-87
2021/10/04 02:50:56;;;;;;;;;;;;;;;;;;5082529;28;19909;-86
2021/10/04 02:53:22;;;;;;;;;;;;;;;;;;5084189;28;19908;-88
2021/10/04 02:55:47;;;;;;;;;;;;;;;;;;5082693;28;19909;-87
2021/10/04 02:58:12;;;;;;;;;;;;;;;;;;5082849;28;20289;-88
2021/10/04 03:00:37;;;;;;;;;;;;;;;;;;5083653;28;20365;-87
2021/10/04 03:03:02;;;;;;;;;;;;;;;;;;5084225;28;19905;-88
2021/10/04 03:05:27;;;;;;;;;;;;;;;;;;5082942;28;19913;-87
2021/10/04 03:07:52;;;;;;;;;;;;;;;;;;5082781;28;20428;-87
2021/10/04 03:10:17;;;;;;;;;;;;;;;;;;5082901;28;20293;-89
2021/10/04 03:12:42;;;;;;;;;;;;;;;;;;5082370;28;20277;-88
2021/10/04 03:15:07;;;;;;;;;;;;;;;;;;5084010;28;19904;-89
2021/10/04 03:17:33;;;;;;;;;;;;;;;;;;5083222;28;19988;-88
2021/10/04 03:19:58;;;;;;;;;;;;;;;;;;5082992;28;19974;-88
2021/10/04 03:22:23;;;;;;;;;;;;;;;;;;5083446;28;19908;-86
2021/10/04 03:24:48;;;;;;;;;;;;;;;;;;5084408;28;19912;-88
2021/10/04 03:27:13;;;;;;;;;;;;;;;;;;5084047;28;19916;-90
2021/10/04 03:29:39;;;;;;;;;;;;;;;;;;5083893;28;19976;-86
2021/10/04 03:32:04;;;;;;;;;;;;;;;;;;5082094;28;20003;-87
2021/10/04 03:34:29;;;;;;;;;;;;;;;;;;5081962;28;19912;-87
2021/10/04 03:36:56;;;;;;;;;;;;;;;;;;5081386;28;19920;-87
2021/10/04 03:39:21;;;;;;;;;;;;;;;;;;5081037;28;19908;-87
2021/10/04 03:41:46;;;;;;;;;;;;;;;;;;5082120;28;20278;-89
2021/10/04 03:44:11;;;;;;;;;;;;;;;;;;5082596;28;19908;-87
2021/10/04 03:46:36;;;;;;;;;;;;;;;;;;5086009;28;19908;-88
2021/10/04 03:49:01;;;;;;;;;;;;;;;;;;5092619;28;19893;-87
2021/10/04 03:51:26;;;;;;;;;;;;;;;;;;5095976;28;19915;-87
2021/10/04 03:53:52;;;;;;;;;;;;;;;;;;5093347;28;20255;-85
2021/10/04 03:56:17;;;;;;;;;;;;;;;;;;5087766;28;19983;-86
2021/10/04 03:58:42;;;;;;;;;;;;;;;;;;5086821;28;19962;-87
2021/10/04 04:01:07;;;;;;;;;;;;;;;;;;5084187;28;19947;-87
2021/10/04 04:03:32;;;;;;;;;;;;;;;;;;5082238;28;19908;-87
2021/10/04 04:05:58;;;;;;;;;;;;;;;;;;5081818;28;19917;-87
2021/10/04 04:08:23;;;;;;;;;;;;;;;;;;5082284;28;20057;-88
2021/10/04 04:10:48;;;;;;;;;;;;;;;;;;5080080;28;19963;-86
2021/10/04 04:13:13;;;;;;;;;;;;;;;;;;5081740;28;19909;-88
2021/10/04 04:15:39;;;;;;;;;;;;;;;;;;5081470;28;19958;-89
2021/10/04 04:18:04;;;;;;;;;;;;;;;;;;5081796;28;19939;-87
2021/10/04 04:20:29;;;;;;;;;;;;;;;;;;5080988;28;20358;-87
2021/10/04 04:22:54;;;;;;;;;;;;;;;;;;5081250;28;20013;-88
2021/10/04 04:25:19;;;;;;;;;;;;;;;;;;5081197;28;20001;-87
2021/10/04 04:27:45;;;;;;;;;;;;;;;;;;5079909;28;19909;-85
2021/10/04 04:30:10;;;;;;;;;;;;;;;;;;5079128;28;19909;-84
2021/10/04 04:32:35;;;;;;;;;;;;;;;;;;5078106;28;19963;-85
2021/10/04 04:35:05;;;;;;;;;;;;;;;;;;5078081;28;19958;-84
2021/10/04 04:37:30;;;;;;;;;;;;;;;;;;5078844;28;19924;-84
2021/10/04 04:39:55;;;;;;;;;;;;;;;;;;5079118;28;19912;-85
2021/10/04 04:42:20;;;;;;;;;;;;;;;;;;5078958;28;19930;-84
2021/10/04 04:44:46;;;;;;;;;;;;;;;;;;5080978;28;19935;-84
2021/10/04 04:47:13;;;;;;;;;;;;;;;;;;5081015;28;19909;-87
2021/10/04 04:49:38;;;;;;;;;;;;;;;;;;5081193;28;19913;-86
2021/10/04 04:52:03;;;;;;;;;;;;;;;;;;5080064;28;19962;-87
2021/10/04 04:54:28;;;;;;;;;;;;;;;;;;5079985;28;19912;-86
2021/10/04 04:56:59;;;;;;;;;;;;;;;;;;5079788;28;19923;-86
2021/10/04 04:59:24;;;;;;;;;;;;;;;;;;5079038;28;19909;-84
2021/10/04 05:04:17;;;;;;;;;;;;;;;;;;5081916;28;19915;-84
2021/10/04 05:06:42;;;;;;;;;;;;;;;;;;5080332;28;19995;-84
2021/10/04 05:09:08;;;;;;;;;;;;;;;;;;5080220;28;19909;-84
2021/10/04 05:11:33;;;;;;;;;;;;;;;;;;5080943;28;19991;-84
2021/10/04 05:13:58;;;;;;;;;;;;;;;;;;5082131;28;19919;-85
2021/10/04 05:16:23;;;;;;;;;;;;;;;;;;5079587;28;19909;-83
2021/10/04 05:18:48;;;;;;;;;;;;;;;;;;5081203;28;19921;-87
2021/10/04 05:21:13;;;;;;;;;;;;;;;;;;5082756;28;19897;-86
2021/10/04 05:23:38;;;;;;;;;;;;;;;;;;5081439;28;20278;-87
2021/10/04 05:26:03;;;;;;;;;;;;;;;;;;5080980;28;19909;-86
2021/10/04 05:28:29;;;;;;;;;;;;;;;;;;5081526;28;19916;-86
2021/10/04 05:30:54;;;;;;;;;;;;;;;;;;5079869;28;20373;-86
2021/10/04 05:33:19;;;;;;;;;;;;;;;;;;5078498;28;19912;-87
2021/10/04 05:35:46;;;;;;;;;;;;;;;;;;5076721;28;19916;-83
2021/10/04 05:38:11;;;;;;;;;;;;;;;;;;5084008;28;19921;-84
2021/10/04 05:40:36;;;;;;;;;;;;;;;;;;5083782;28;19916;-84
2021/10/04 05:43:04;;;;;;;;;;;;;;;;;;5087938;28;19972;-84
2021/10/04 05:45:30;;;;;;;;;;;;;;;;;;5110353;22;19939;-83
2021/10/04 05:47:55;;;;;;;;;;;;;;;;;;5095348;28;19904;-82
2021/10/04 05:50:20;;;;;;;;;;;;;;;;;;5090537;28;20008;-85
2021/10/04 05:52:45;;;;;;;;;;;;;;;;;;5087738;28;19955;-85
2021/10/04 05:55:10;;;;;;;;;;;;;;;;;;5089886;28;19978;-87
2021/10/04 05:57:36;;;;;;;;;;;;;;;;;;5091183;28;19916;-86
2021/10/04 06:00:01;;;;;;;;;;;;;;;;;;5088253;28;19908;-86
2021/10/04 06:02:29;;;;;;;;;;;;;;;;;;5089971;28;19915;-84
2021/10/04 06:04:56;;;;;;;;;;;;;;;;;;5106226;28;19953;-85
2021/10/04 06:07:21;;;;;;;;;;;;;;;;;;5098305;28;19996;-86
2021/10/04 06:09:46;;;;;;;;;;;;;;;;;;5078913;28;19916;-85
2021/10/04 06:12:12;;;;;;;;;;;;;;;;;;5082825;28;19910;-85
2021/10/04 06:14:37;;;;;;;;;;;;;;;;;;5082878;28;19916;-86
2021/10/04 06:17:02;;;;;;;;;;;;;;;;;;5099204;28;19916;-86
2021/10/04 06:19:27;;;;;;;;;;;;;;;;;;5081640;28;20388;-85
2021/10/04 06:21:52;;;;;;;;;;;;;;;;;;5082322;28;19915;-87
2021/10/04 06:24:17;;;;;;;;;;;;;;;;;;5099896;28;19908;-86
2021/10/04 06:26:42;;;;;;;;;;;;;;;;;;5082073;28;20356;-87
2021/10/04 06:29:07;;;;;;;;;;;;;;;;;;5081529;28;19930;-85
2021/10/04 06:31:32;;;;;;;;;;;;;;;;;;5099794;28;20007;-87
2021/10/04 06:33:58;;;;;;;;;;;;;;;;;;5083498;28;19908;-87
2021/10/04 06:36:23;;;;;;;;;;;;;;;;;;5100128;28;19908;-87
2021/10/04 06:38:48;;;;;;;;;;;;;;;;;;5082612;28;19916;-86
2021/10/04 06:41:13;;;;;;;;;;;;;;;;;;5081835;28;20026;-86
2021/10/04 06:43:38;;;;;;;;;;;;;;;;;;5082663;28;19962;-87
2021/10/04 06:46:07;;;;;;;;;;;;;;;;;;5081616;28;19924;-87
2021/10/04 06:48:32;;;;;;;;;;;;;;;;;;5081750;28;19930;-86
2021/10/04 06:50:57;;;;;;;;;;;;;;;;;;5099155;28;20006;-87
2021/10/04 06:53:23;;;;;;;;;;;;;;;;;;5082714;28;19952;-85
2021/10/04 06:55:48;;;;;;;;;;;;;;;;;;5079393;28;19919;-85
2021/10/04 06:58:13;;;;;;;;;;;;;;;;;;5091858;28;19916;-86
2021/10/04 07:00:38;;;;;;;;;;;;;;;;;;5089564;28;19935;-87
2021/10/04 07:03:03;;;;;;;;;;;;;;;;;;5071757;28;19908;-85
2021/10/04 07:05:28;;;;;;;;;;;;;;;;;;5072811;28;19909;-86
2021/10/04 07:07:56;;;;;;;;;;;;;;;;;;5075100;28;19944;-87
2021/10/04 07:10:21;;;;;;;;;;;;;;;;;;5071235;28;19912;-88
2021/10/04 07:12:46;;;;;;;;;;;;;;;;;;5109407;28;19957;-87
2021/10/04 07:15:12;;;;;;;;;;;;;;;;;;5088635;28;19946;-85
2021/10/04 07:17:38;;;;;;;;;;;;;;;;;;5097891;28;19943;-88
2021/10/04 07:20:03;;;;;;;;;;;;;;;;;;5073893;28;20369;-88
2021/10/04 07:22:28;;;;;;;;;;;;;;;;;;5091301;28;19932;-88
2021/10/04 07:24:53;;;;;;;;;;;;;;;;;;5068601;28;19954;-88
2021/10/04 07:27:18;;;;;;;;;;;;;;;;;;5071289;28;19909;-88
2021/10/04 07:29:43;;;;;;;;;;;;;;;;;;5066886;28;19945;-87
2021/10/04 07:32:08;;;;;;;;;;;;;;;;;;5073185;28;19960;-87
2021/10/04 07:34:34;;;;;;;;;;;;;;;;;;5069230;28;20187;-88
2021/10/04 07:36:59;;;;;;;;;;;;;;;;;;5070636;28;19923;-88
2021/10/04 07:39:24;;;;;;;;;;;;;;;;;;5075551;28;19920;-89
2021/10/04 07:41:49;;;;;;;;;;;;;;;;;;5076992;28;20007;-88
2021/10/04 07:44:14;;;;;;;;;;;;;;;;;;5072417;28;19955;-87
2021/10/04 07:46:39;;;;;;;;;;;;;;;;;;5070577;28;19971;-90
2021/10/04 07:49:04;;;;;;;;;;;;;;;;;;5071783;28;19908;-86
2021/10/04 07:51:29;;;;;;;;;;;;;;;;;;5081647;28;19938;-86
2021/10/04 07:53:54;;;;;;;;;;;;;;;;;;5076429;28;19912;-85
2021/10/04 07:56:20;;;;;;;;;;;;;;;;;;5078908;28;19916;-86
2021/10/04 07:58:45;;;;;;;;;;;;;;;;;;5059592;28;19917;-86
2021/10/04 08:01:12;;;;;;;;;;;;;;;;;;5078210;28;19912;-86
2021/10/04 08:03:37;;;;;;;;;;;;;;;;;;5077454;28;19986;-85
2021/10/04 08:06:02;;;;;;;;;;;;;;;;;;5093564;28;19912;-87
2021/10/04 08:08:27;;;;;;;;;;;;;;;;;;5074470;28;20278;-86
2021/10/04 08:10:52;;;;;;;;;;;;;;;;;;5058802;28;20309;-87
2021/10/04 08:13:17;;;;;;;;;;;;;;;;;;5078268;28;20435;-84
2021/10/04 08:15:42;;;;;;;;;;;;;;;;;;5078371;28;19938;-86
2021/10/04 08:18:08;;;;;;;;;;;;;;;;;;5060599;28;19917;-85
2021/10/04 08:20:33;;;;;;;;;;;;;;;;;;5077395;28;19955;-85
2021/10/04 08:22:58;;;;;;;;;;;;;;;;;;5077539;28;19970;-85
2021/10/04 08:25:23;;;;;;;;;;;;;;;;;;5060911;28;19908;-87
2021/10/04 08:27:48;;;;;;;;;;;;;;;;;;5078194;28;20423;-86
2021/10/04 08:30:13;;;;;;;;;;;;;;;;;;5060928;28;20372;-86
2021/10/04 08:32:38;;;;;;;;;;;;;;;;;;5061222;28;19965;-87
2021/10/04 08:35:04;;;;;;;;;;;;;;;;;;5060027;28;19912;-83
2021/10/04 08:37:32;;;;;;;;;;;;;;;;;;5078028;28;20423;-85
2021/10/04 08:39:57;;;;;;;;;;;;;;;;;;5060614;28;19908;-85
2021/10/04 08:42:22;;;;;;;;;;;;;;;;;;5078135;28;19916;-86
2021/10/04 08:44:48;;;;;;;;;;;;;;;;;;5077903;28;19928;-86
2021/10/04 08:47:13;;;;;;;;;;;;;;;;;;5057038;28;19921;-86
2021/10/04 08:49:38;;;;;;;;;;;;;;;;;;5057254;28;19909;-85
2021/10/04 08:52:03;;;;;;;;;;;;;;;;;;5055767;28;20373;-83
2021/10/04 08:54:29;;;;;;;;;;;;;;;;;;5057179;28;19915;-86
2021/10/04 08:56:55;;;;;;;;;;;;;;;;;;5057029;28;19917;-86
2021/10/04 08:59:20;;;;;;;;;;;;;;;;;;5060484;28;19932;-87
2021/10/04 09:01:45;;;;;;;;;;;;;;;;;;5057718;28;19909;-89
2021/10/04 09:04:10;;;;;;;;;;;;;;;;;;5058419;28;19963;-87
2021/10/04 09:06:35;;;;;;;;;;;;;;;;;;5059237;28;19935;-88
2021/10/04 09:09:01;;;;;;;;;;;;;;;;;;5057888;28;19931;-89
2021/10/04 09:11:27;;;;;;;;;;;;;;;;;;5056628;28;19921;-88
2021/10/04 09:13:52;;;;;;;;;;;;;;;;;;5058493;28;19920;-86
2021/10/04 09:16:17;;;;;;;;;;;;;;;;;;5055812;28;19939;-87
2021/10/04 09:18:42;;;;;;;;;;;;;;;;;;5057731;28;19917;-87
2021/10/04 09:21:08;;;;;;;;;;;;;;;;;;5056020;28;20347;-88
2021/10/04 09:23:35;;;;;;;;;;;;;;;;;;5055700;28;19913;-87
2021/10/04 09:26:00;;;;;;;;;;;;;;;;;;5058135;28;19909;-88
2021/10/04 09:28:25;;;;;;;;;;;;;;;;;;5057638;28;20003;-89
2021/10/04 09:30:54;;;;;;;;;;;;;;;;;;5058038;28;20324;-88
2021/10/04 09:33:19;;;;;;;;;;;;;;;;;;5056545;28;20102;-88
2021/10/04 09:35:44;;;;;;;;;;;;;;;;;;5056148;28;19908;-87
2021/10/04 09:38:10;;;;;;;;;;;;;;;;;;5058278;28;19924;-87
2021/10/04 09:40:35;;;;;;;;;;;;;;;;;;5058485;28;20019;-87
2021/10/04 09:43:00;;;;;;;;;;;;;;;;;;5058189;28;20282;-89
2021/10/04 09:45:25;;;;;;;;;;;;;;;;;;5062297;28;20977;-88
2021/10/04 09:47:51;;;;;;;;;;;;;;;;;;5082879;28;19966;-87
2021/10/04 09:50:16;;;;;;;;;;;;;;;;;;5063582;28;19908;-88
2021/10/04 09:52:41;;;;;;;;;;;;;;;;;;5063642;28;19939;-85
2021/10/04 09:55:07;;;;;;;;;;;;;;;;;;5082302;28;19909;-86
2021/10/04 09:57:32;;;;;;;;;;;;;;;;;;5062844;28;20065;-85
2021/10/04 09:59:57;;;;;;;;;;;;;;;;;;5081387;28;19998;-87
2021/10/04 10:02:22;;;;;;;;;;;;;;;;;;5064002;28;19999;-85
2021/10/04 10:04:50;;;;;;;;;;;;;;;;;;5083996;28;19952;-88
2021/10/04 10:07:15;;;;;;;;;;;;;;;;;;5065561;28;19908;-85
2021/10/04 10:09:40;;;;;;;;;;;;;;;;;;5080559;28;19908;-88
2021/10/04 10:12:05;;;;;;;;;;;;;;;;;;5064023;28;20312;-90
2021/10/04 10:14:30;;;;;;;;;;;;;;;;;;5064210;28;19915;-91
2021/10/04 10:16:55;;;;;;;;;;;;;;;;;;5066384;28;20304;-92
2021/10/04 10:19:22;;;;;;;;;;;;;;;;;;5067158;28;19930;-90
2021/10/04 10:21:48;;;;;;;;;;;;;;;;;;5075432;28;19936;-90
2021/10/04 10:24:13;;;;;;;;;;;;;;;;;;5083373;28;19900;-89
2021/10/04 10:26:41;;;;;;;;;;;;;;;;;;5082634;28;19903;-85
2021/10/04 10:29:06;;;;;;;;;;;;;;;;;;5093007;28;19908;-87
2021/10/04 10:31:31;;;;;;;;;;;;;;;;;;5069392;28;20358;-88
2021/10/04 10:33:57;;;;;;;;;;;;;;;;;;5064354;28;19909;-86
2021/10/04 10:36:22;;;;;;;;;;;;;;;;;;5081508;28;20488;-86
2021/10/04 10:38:47;;;;;;;;;;;;;;;;;;5064021;28;19927;-86
2021/10/04 10:41:12;;;;;;;;;;;;;;;;;;5062769;28;20370;-87
2021/10/04 10:43:37;;;;;;;;;;;;;;;;;;5061174;28;20362;-85
2021/10/04 10:46:02;;;;;;;;;;;;;;;;;;5080043;28;19924;-88
2021/10/04 10:48:27;;;;;;;;;;;;;;;;;;5063246;28;19909;-86
2021/10/04 10:50:54;;;;;;;;;;;;;;;;;;5080747;28;19954;-88
2021/10/04 10:53:21;;;;;;;;;;;;;;;;;;5079364;28;19912;-87
2021/10/04 10:55:46;;;;;;;;;;;;;;;;;;5060857;28;19908;-88
2021/10/04 10:58:14;;;;;;;;;;;;;;;;;;5078441;28;19923;-87
2021/10/04 11:00:39;;;;;;;;;;;;;;;;;;5060400;28;19912;-86
2021/10/04 11:03:04;;;;;;;;;;;;;;;;;;5061716;28;19920;-88
2021/10/04 11:05:29;;;;;;;;;;;;;;;;;;5062601;28;19948;-87
2021/10/04 11:07:54;;;;;;;;;;;;;;;;;;5095048;28;19908;-88
2021/10/04 11:10:20;;;;;;;;;;;;;;;;;;5092197;28;19913;-88
2021/10/04 11:12:45;;;;;;;;;;;;;;;;;;5062195;28;19930;-87
2021/10/04 11:15:10;;;;;;;;;;;;;;;;;;5061307;28;20230;-87
2021/10/04 11:17:35;;;;;;;;;;;;;;;;;;5078309;28;19994;-85
2021/10/04 11:20:00;;;;;;;;;;;;;;;;;;5080249;28;19909;-88
2021/10/04 11:22:25;;;;;;;;;;;;;;;;;;5080829;28;20012;-89
2021/10/04 11:24:51;;;;;;;;;;;;;;;;;;5062583;28;19991;-91
2021/10/04 11:27:17;;;;;;;;;;;;;;;;;;5063172;28;19979;-87
2021/10/04 11:29:43;;;;;;;;;;;;;;;;;;5062520;28;19961;-88
2021/10/04 11:32:08;;;;;;;;;;;;;;;;;;5079514;28;20003;-89
2021/10/04 11:34:34;;;;;;;;;;;;;;;;;;5080446;28;19916;-87
2021/10/04 11:37:00;;;;;;;;;;;;;;;;;;5067975;28;19962;-90
2021/10/04 11:39:26;;;;;;;;;;;;;;;;;;5087167;28;20003;-90
2021/10/04 11:41:51;;;;;;;;;;;;;;;;;;5083942;28;19962;-86
2021/10/04 11:44:18;;;;;;;;;;;;;;;;;;5103044;28;19914;-88
2021/10/04 11:46:44;;;;;;;;;;;;;;;;;;5082996;28;19920;-90
2021/10/04 11:49:09;;;;;;;;;;;;;;;;;;5080333;28;20357;-88
2021/10/04 11:51:36;;;;;;;;;;;;;;;;;;5081359;28;19967;-87
2021/10/04 11:54:01;;;;;;;;;;;;;;;;;;5081260;28;19908;-89
2021/10/04 11:56:26;;;;;;;;;;;;;;;;;;5081373;28;20007;-91
2021/10/04 11:58:51;;;;;;;;;;;;;;;;;;5099677;28;19916;-87
2021/10/04 12:01:17;;;;;;;;;;;;;;;;;;5080888;28;19918;-89
2021/10/04 12:03:42;;;;;;;;;;;;;;;;;;5100069;28;20332;-86
2021/10/04 12:06:07;;;;;;;;;;;;;;;;;;5080522;28;20385;-90
2021/10/04 12:08:32;;;;;;;;;;;;;;;;;;5079867;28;19916;-89
2021/10/04 12:10:57;;;;;;;;;;;;;;;;;;5079514;28;19908;-88
2021/10/04 12:13:22;;;;;;;;;;;;;;;;;;5080773;28;20280;-89
2021/10/04 12:15:47;;;;;;;;;;;;;;;;;;5080276;28;19926;-89
2021/10/04 12:18:13;;;;;;;;;;;;;;;;;;5080099;28;20022;-91
2021/10/04 12:20:38;;;;;;;;;;;;;;;;;;5097843;28;19951;-89
2021/10/04 12:23:03;;;;;;;;;;;;;;;;;;5080950;28;19966;-89
2021/10/04 12:25:28;;;;;;;;;;;;;;;;;;5101554;28;20021;-91
2021/10/04 12:27:53;;;;;;;;;;;;;;;;;;5099243;28;19954;-89
2021/10/04 12:30:19;;;;;;;;;;;;;;;;;;5100173;28;19903;-89
2021/10/04 12:32:46;;;;;;;;;;;;;;;;;;5083462;28;19909;-88
2021/10/04 12:35:12;;;;;;;;;;;;;;;;;;5081499;28;19927;-87
2021/10/04 12:37:37;;;;;;;;;;;;;;;;;;5082070;28;19920;-88
2021/10/04 12:40:02;;;;;;;;;;;;;;;;;;5080972;28;19908;-86
2021/10/04 12:42:28;;;;;;;;;;;;;;;;;;5078380;28;20373;-89
2021/10/04 12:44:56;;;;;;;;;;;;;;;;;;5076091;28;19959;-93
2021/10/04 12:47:21;;;;;;;;;;;;;;;;;;5079496;28;19924;-91
2021/10/04 12:49:46;;;;;;;;;;;;;;;;;;5081517;28;19912;-90
2021/10/04 12:52:11;;;;;;;;;;;;;;;;;;5079677;28;19908;-91
2021/10/04 12:54:36;;;;;;;;;;;;;;;;;;5080815;28;20094;-91
2021/10/04 12:57:02;;;;;;;;;;;;;;;;;;5082015;28;19904;-89
2021/10/04 12:59:27;;;;;;;;;;;;;;;;;;5061043;28;20191;-90
2021/10/04 13:01:52;;;;;;;;;;;;;;;;;;5078165;28;20006;-91
2021/10/04 13:04:18;;;;;;;;;;;;;;;;;;5079634;28;19916;-90
2021/10/04 13:06:44;;;;;;;;;;;;;;;;;;5078768;28;19944;-90
2021/10/04 13:09:10;;;;;;;;;;;;;;;;;;5083360;28;20343;-91
2021/10/04 13:11:35;;;;;;;;;;;;;;;;;;5081329;28;20415;-91
2021/10/04 13:14:00;;;;;;;;;;;;;;;;;;5081226;28;19915;-92
2021/10/04 13:16:25;;;;;;;;;;;;;;;;;;5079094;28;19917;-91
2021/10/04 13:18:50;;;;;;;;;;;;;;;;;;5077828;28;19931;-87
2021/10/04 13:21:15;;;;;;;;;;;;;;;;;;5083040;28;20430;-89
2021/10/04 13:23:40;;;;;;;;;;;;;;;;;;5078163;28;19916;-89
2021/10/04 13:26:05;;;;;;;;;;;;;;;;;;5061577;28;20003;-90
2021/10/04 13:28:31;;;;;;;;;;;;;;;;;;5066458;28;20366;-87
2021/10/04 13:30:56;;;;;;;;;;;;;;;;;;5068080;28;19957;-88
2021/10/04 13:33:21;;;;;;;;;;;;;;;;;;5076703;28;19954;-87
2021/10/04 13:35:46;;;;;;;;;;;;;;;;;;5077866;28;19975;-85
2021/10/04 13:38:11;;;;;;;;;;;;;;;;;;5073067;28;19917;-83
2021/10/04 13:40:39;;;;;;;;;;;;;;;;;;5069368;28;20000;-87
2021/10/04 13:43:04;;;;;;;;;;;;;;;;;;5071869;28;20397;-87
2021/10/04 13:45:29;;;;;;;;;;;;;;;;;;5072204;28;19924;-89
2021/10/04 13:47:55;;;;;;;;;;;;;;;;;;5073749;28;19961;-88
2021/10/04 13:50:20;;;;;;;;;;;;;;;;;;5085352;28;19912;-90
2021/10/04 13:52:46;;;;;;;;;;;;;;;;;;5084559;28;19931;-89
2021/10/04 13:55:11;;;;;;;;;;;;;;;;;;5075889;28;19915;-89
2021/10/04 13:57:36;;;;;;;;;;;;;;;;;;5097986;28;19941;-89
2021/10/04 14:00:01;;;;;;;;;;;;;;;;;;5074029;28;19915;-88
2021/10/04 14:02:27;;;;;;;;;;;;;;;;;;5078341;28;19917;-89
2021/10/04 14:04:52;;;;;;;;;;;;;;;;;;5082020;28;19915;-90
2021/10/04 14:07:17;;;;;;;;;;;;;;;;;;5076872;28;19913;-87
2021/10/04 14:09:42;;;;;;;;;;;;;;;;;;5077159;28;19942;-89
2021/10/04 14:12:07;;;;;;;;;;;;;;;;;;5074974;28;19912;-90
2021/10/04 14:14:32;;;;;;;;;;;;;;;;;;5077821;28;19967;-91
2021/10/04 14:16:57;;;;;;;;;;;;;;;;;;5067349;28;19912;-87
2021/10/04 14:19:22;;;;;;;;;;;;;;;;;;5064039;28;20274;-87
2021/10/04 14:21:48;;;;;;;;;;;;;;;;;;5081612;28;19909;-85
2021/10/04 14:24:14;;;;;;;;;;;;;;;;;;5092541;28;19896;-87
2021/10/04 14:26:41;;;;;;;;;;;;;;;;;;5114734;28;20361;-90
2021/10/04 14:29:06;;;;;;;;;;;;;;;;;;5090354;28;19908;-91
2021/10/04 14:31:31;;;;;;;;;;;;;;;;;;5091110;28;19908;-87
2021/10/04 14:33:58;;;;;;;;;;;;;;;;;;5096508;28;19908;-89
2021/10/04 14:36:23;;;;;;;;;;;;;;;;;;5092013;28;19908;-87
2021/10/04 14:38:51;;;;;;;;;;;;;;;;;;5090247;28;19924;-88
2021/10/04 14:41:18;;;;;;;;;;;;;;;;;;5093805;28;19908;-87
2021/10/04 14:43:44;;;;;;;;;;;;;;;;;;5108486;22;19994;-85
2021/10/04 14:46:09;;;;;;;;;;;;;;;;;;5081034;28;20371;-83
2021/10/04 14:48:35;;;;;;;;;;;;;;;;;;5099211;28;19965;-82
2021/10/04 14:51:00;;;;;;;;;;;;;;;;;;5080131;28;19912;-84
2021/10/04 14:53:25;;;;;;;;;;;;;;;;;;5096591;28;19915;-84
2021/10/04 14:55:50;;;;;;;;;;;;;;;;;;5096116;28;19912;-83
2021/10/04 14:58:15;;;;;;;;;;;;;;;;;;5078133;28;19916;-83
2021/10/04 15:00:40;;;;;;;;;;;;;;;;;;5080381;28;19908;-84
2021/10/04 15:03:06;;;;;;;;;;;;;;;;;;5078481;28;19908;-78
2021/10/04 15:05:31;;;;;;;;;;;;;;;;;;5095414;28;19915;-81
2021/10/04 15:07:56;;;;;;;;;;;;;;;;;;5076478;28;19938;-81
2021/10/04 15:10:21;;;;;;;;;;;;;;;;;;5077822;28;19908;-80
2021/10/04 15:12:46;;;;;;;;;;;;;;;;;;5076257;28;19908;-81
2021/10/04 15:15:11;;;;;;;;;;;;;;;;;;5077739;28;19912;-81
2021/10/04 15:17:36;;;;;;;;;;;;;;;;;;5095924;28;20346;-80
2021/10/04 15:20:01;;;;;;;;;;;;;;;;;;5095800;28;19908;-81
2021/10/04 15:22:26;;;;;;;;;;;;;;;;;;5096086;28;19909;-80
2021/10/04 15:24:51;;;;;;;;;;;;;;;;;;5094488;28;20007;-81
2021/10/04 15:27:17;;;;;;;;;;;;;;;;;;5094305;28;20361;-80
2021/10/04 15:29:42;;;;;;;;;;;;;;;;;;5094257;28;19951;-80
2021/10/04 15:32:07;;;;;;;;;;;;;;;;;;5075571;28;20456;-80
2021/10/04 15:34:32;;;;;;;;;;;;;;;;;;5075465;28;19908;-81
2021/10/04 15:36:57;;;;;;;;;;;;;;;;;;5093892;28;19961;-81
2021/10/04 15:39:22;;;;;;;;;;;;;;;;;;5075931;28;19908;-80
2021/10/04 15:41:47;;;;;;;;;;;;;;;;;;5094645;28;19931;-80
2021/10/04 15:44:12;;;;;;;;;;;;;;;;;;5076761;28;19927;-82
2021/10/04 15:46:37;;;;;;;;;;;;;;;;;;5095860;28;19912;-82
2021/10/04 15:49:02;;;;;;;;;;;;;;;;;;5095807;28;19926;-81
2021/10/04 15:51:28;;;;;;;;;;;;;;;;;;5077562;28;20403;-81
2021/10/04 15:53:53;;;;;;;;;;;;;;;;;;5095523;28;19908;-82
2021/10/04 15:56:20;;;;;;;;;;;;;;;;;;5077287;28;19908;-80
2021/10/04 15:58:45;;;;;;;;;;;;;;;;;;5095054;28;19963;-80
2021/10/04 16:01:10;;;;;;;;;;;;;;;;;;5077288;28;19908;-81
2021/10/04 16:03:35;;;;;;;;;;;;;;;;;;5095771;28;19914;-81
2021/10/04 16:06:00;;;;;;;;;;;;;;;;;;5095890;28;20357;-80
2021/10/04 16:08:27;;;;;;;;;;;;;;;;;;5078063;28;19934;-82
2021/10/04 16:10:55;;;;;;;;;;;;;;;;;;5095990;28;20288;-81
2021/10/04 16:13:21;;;;;;;;;;;;;;;;;;5077258;28;19950;-80
2021/10/04 16:15:46;;;;;;;;;;;;;;;;;;5078497;28;19968;-81
2021/10/04 16:18:11;;;;;;;;;;;;;;;;;;5098366;28;19916;-80
2021/10/04 16:20:36;;;;;;;;;;;;;;;;;;5078093;28;19908;-81
2021/10/04 16:23:04;;;;;;;;;;;;;;;;;;5077405;28;19954;-82
2021/10/04 16:25:29;;;;;;;;;;;;;;;;;;5077311;28;19911;-82
2021/10/04 16:27:54;;;;;;;;;;;;;;;;;;5077094;28;19908;-80
2021/10/04 16:30:19;;;;;;;;;;;;;;;;;;5077419;28;19911;-80
2021/10/04 16:32:44;;;;;;;;;;;;;;;;;;5077045;28;19908;-81
2021/10/04 16:35:10;;;;;;;;;;;;;;;;;;5095797;28;20360;-81